createdAt,value
2023-04-16T00:00:54.053Z,5.00
2023-04-16T00:03:20.856Z,5.20
2023-04-16T00:05:47.319Z,2.33
2023-04-16T00:08:13.963Z,3.83
2023-04-16T00:10:40.361Z,5.00
2023-04-16T00:13:06.694Z,5.00
2023-04-16T00:15:33.158Z,5.07
2023-04-16T00:17:59.609Z,4.45
2023-04-16T00:20:26.007Z,3.80
2023-04-16T00:22:52.452Z,3.90
2023-04-16T00:25:18.828Z,3.30
2023-04-16T00:27:45.715Z,2.97
2023-04-16T00:30:12.278Z,3.88
2023-04-16T00:32:38.641Z,4.10
2023-04-16T00:35:05.246Z,3.47
2023-04-16T00:37:31.682Z,2.88
2023-04-16T00:39:58.062Z,2.77
2023-04-16T00:42:24.456Z,1.95
2023-04-16T00:44:50.833Z,4.15
2023-04-16T00:47:17.338Z,5.13
2023-04-16T00:49:43.877Z,5.18
2023-04-16T00:52:11.472Z,3.43
2023-04-16T00:54:37.859Z,3.78
2023-04-16T00:57:04.285Z,5.07
2023-04-16T00:59:30.827Z,5.22
2023-04-16T01:01:57.327Z,3.90
2023-04-16T01:04:23.940Z,3.00
2023-04-16T01:06:50.604Z,5.28
2023-04-16T01:09:17.010Z,5.72
2023-04-16T01:11:43.376Z,6.80
2023-04-16T01:14:09.784Z,6.50
2023-04-16T01:16:36.138Z,6.07
2023-04-16T01:19:02.497Z,6.88
2023-04-16T01:21:29.004Z,6.40
2023-04-16T01:23:55.380Z,5.03
2023-04-16T01:26:21.737Z,5.85
2023-04-16T01:28:48.240Z,3.97
2023-04-16T01:31:14.625Z,5.18
2023-04-16T01:33:41.027Z,5.50
2023-04-16T01:36:07.598Z,5.63
2023-04-16T01:38:33.953Z,5.00
2023-04-16T01:41:00.299Z,5.03
2023-04-16T01:43:26.777Z,4.93
2023-04-16T01:45:57.938Z,4.68
2023-04-16T01:48:24.327Z,4.43
2023-04-16T01:50:50.809Z,4.90
2023-04-16T01:53:17.216Z,5.30
2023-04-16T01:55:43.560Z,5.03
2023-04-16T01:58:09.957Z,3.85
2023-04-16T02:00:36.393Z,4.63
2023-04-16T02:03:03.035Z,5.25
2023-04-16T02:05:29.600Z,5.20
2023-04-16T02:07:55.933Z,5.55
2023-04-16T02:10:22.300Z,5.18
2023-04-16T02:12:48.689Z,5.10
2023-04-16T02:15:15.125Z,5.00
2023-04-16T02:17:41.513Z,5.17
2023-04-16T02:20:08.280Z,4.78
2023-04-16T02:22:34.730Z,4.65
2023-04-16T02:25:01.066Z,5.18
2023-04-16T02:27:27.532Z,4.65
2023-04-16T02:29:53.877Z,4.20
2023-04-16T02:32:20.260Z,4.63
2023-04-16T02:34:46.842Z,5.18
2023-04-16T02:37:13.201Z,4.40
2023-04-16T02:39:39.576Z,4.75
2023-04-16T02:42:06.125Z,4.57
2023-04-16T02:44:32.452Z,2.67
2023-04-16T02:46:58.788Z,4.18
2023-04-16T02:49:25.234Z,5.80
2023-04-16T02:51:51.742Z,4.97
2023-04-16T02:54:18.136Z,5.60
2023-04-16T02:56:44.596Z,5.70
2023-04-16T02:59:11.189Z,5.70
2023-04-16T03:01:37.792Z,4.57
2023-04-16T03:04:04.452Z,5.32
2023-04-16T03:06:30.990Z,5.67
2023-04-16T03:08:57.341Z,5.68
2023-04-16T03:11:23.724Z,5.18
2023-04-16T03:13:50.053Z,5.85
2023-04-16T03:16:16.526Z,6.70
2023-04-16T03:18:43.107Z,5.13
2023-04-16T03:21:09.453Z,5.93
2023-04-16T03:23:35.801Z,8.38
2023-04-16T03:26:02.271Z,6.85
2023-04-16T03:28:28.626Z,9.80
2023-04-16T03:30:55.044Z,6.72
2023-04-16T03:33:21.570Z,7.20
2023-04-16T03:35:54.567Z,10.20
2023-04-16T03:38:20.917Z,12.13
2023-04-16T03:40:47.314Z,15.45
2023-04-16T03:43:13.643Z,14.48
2023-04-16T03:45:43.989Z,14.25
2023-04-16T03:48:10.409Z,9.60
2023-04-16T03:50:36.788Z,7.72
2023-04-16T03:53:03.217Z,8.75
2023-04-16T03:55:29.743Z,10.82
2023-04-16T03:57:56.105Z,10.50
2023-04-16T04:00:22.457Z,12.00
2023-04-16T04:02:49.155Z,16.05
2023-04-16T04:05:15.661Z,15.40
2023-04-16T04:07:41.994Z,15.98
2023-04-16T04:10:08.952Z,14.10
2023-04-16T04:12:35.313Z,14.68
2023-04-16T04:15:01.700Z,13.35
2023-04-16T04:17:28.176Z,10.90
2023-04-16T04:20:01.271Z,12.48
2023-04-16T04:22:28.229Z,11.20
2023-04-16T04:24:54.589Z,14.60
2023-04-16T04:27:21.057Z,15.68
2023-04-16T04:29:47.557Z,15.52
2023-04-16T04:32:14.014Z,10.38
2023-04-16T04:34:40.370Z,11.37
2023-04-16T04:37:06.858Z,10.65
2023-04-16T04:39:33.201Z,9.55
2023-04-16T04:41:59.552Z,9.57
2023-04-16T04:44:25.944Z,10.98
2023-04-16T04:46:52.276Z,12.93
2023-04-16T04:49:18.635Z,13.15
2023-04-16T04:51:45.056Z,17.50
2023-04-16T04:54:11.858Z,13.75
2023-04-16T04:56:38.274Z,12.88
2023-04-16T04:59:04.660Z,9.50
2023-04-16T05:01:31.080Z,11.23
2023-04-16T05:03:57.590Z,12.40
2023-04-16T05:06:24.017Z,9.93
2023-04-16T05:08:50.367Z,8.70
2023-04-16T05:11:16.729Z,9.57
2023-04-16T05:13:43.155Z,9.43
2023-04-16T05:16:09.587Z,9.90
2023-04-16T05:18:35.961Z,9.80
2023-04-16T05:21:02.379Z,8.77
2023-04-16T05:23:28.738Z,8.03
2023-04-16T05:25:55.094Z,8.10
2023-04-16T05:28:21.526Z,9.90
2023-04-16T05:30:47.958Z,9.38
2023-04-16T05:33:14.308Z,9.82
2023-04-16T05:35:40.692Z,10.83
2023-04-16T05:38:07.034Z,10.18
2023-04-16T05:40:33.400Z,9.68
2023-04-16T05:42:59.838Z,9.18
2023-04-16T05:45:27.929Z,9.07
2023-04-16T05:47:54.546Z,8.60
2023-04-16T05:50:20.972Z,10.07
2023-04-16T05:52:47.560Z,11.75
2023-04-16T05:55:13.888Z,11.43
2023-04-16T05:57:40.270Z,13.63
2023-04-16T06:00:08.345Z,12.20
2023-04-16T06:02:35.025Z,12.63
2023-04-16T06:05:01.829Z,11.52
2023-04-16T06:07:28.436Z,12.60
2023-04-16T06:12:21.417Z,12.02
2023-04-16T06:14:47.930Z,12.23
2023-04-16T06:17:14.455Z,11.52
2023-04-16T06:19:41.000Z,10.98
2023-04-16T06:22:07.487Z,12.07
2023-04-16T06:24:33.945Z,12.73
2023-04-16T06:27:00.313Z,11.17
2023-04-16T06:29:36.897Z,12.23
2023-04-16T06:32:07.383Z,11.65
2023-04-16T06:34:33.741Z,12.60
2023-04-16T06:37:00.117Z,10.30
2023-04-16T06:39:26.852Z,11.60
2023-04-16T06:41:53.417Z,9.30
2023-04-16T06:44:19.879Z,8.32
2023-04-16T06:46:46.538Z,7.63
2023-04-16T06:49:13.054Z,7.45
2023-04-16T06:51:39.775Z,5.40
2023-04-16T06:54:06.472Z,6.78
2023-04-16T06:56:32.827Z,6.22
2023-04-16T06:58:59.184Z,5.57
2023-04-16T07:01:25.692Z,7.18
2023-04-16T07:03:52.518Z,6.20
2023-04-16T07:06:19.279Z,6.53
2023-04-16T07:08:45.797Z,7.47
2023-04-16T07:11:12.307Z,5.65
2023-04-16T07:13:38.758Z,6.82
2023-04-16T07:16:05.526Z,4.50
2023-04-16T07:18:32.190Z,3.80
2023-04-16T07:20:58.567Z,5.57
2023-04-16T07:23:24.980Z,4.53
2023-04-16T07:25:51.337Z,4.57
2023-04-16T07:28:17.702Z,2.80
2023-04-16T07:30:44.311Z,4.40
2023-04-16T07:33:10.711Z,9.82
2023-04-16T07:35:37.130Z,11.43
2023-04-16T07:38:03.665Z,5.35
2023-04-16T07:40:30.150Z,12.90
2023-04-16T07:42:56.503Z,4.00
2023-04-16T07:45:23.536Z,12.52
2023-04-16T07:47:49.933Z,9.05
2023-04-16T07:50:16.388Z,5.30
2023-04-16T07:52:43.137Z,4.13
2023-04-16T07:55:09.588Z,7.63
2023-04-16T07:57:35.987Z,7.90
2023-04-16T08:00:02.571Z,4.50
2023-04-16T08:02:29.023Z,4.03
2023-04-16T08:04:55.606Z,3.53
2023-04-16T08:07:22.154Z,3.65
2023-04-16T08:09:49.082Z,3.63
2023-04-16T08:12:15.746Z,3.75
2023-04-16T08:14:42.146Z,4.60
2023-04-16T08:17:08.492Z,4.87
2023-04-16T08:19:34.925Z,3.17
2023-04-16T08:22:01.302Z,3.83
2023-04-16T08:24:27.677Z,3.75
2023-04-16T08:26:54.121Z,4.47
2023-04-16T08:29:20.516Z,3.57
2023-04-16T08:31:47.094Z,4.40
2023-04-16T08:34:13.708Z,4.75
2023-04-16T08:36:40.641Z,4.53
2023-04-16T08:39:06.990Z,4.43
2023-04-16T08:41:34.552Z,5.53
2023-04-16T08:44:07.680Z,4.97
2023-04-16T08:46:37.169Z,5.45
2023-04-16T08:49:07.149Z,5.22
2023-04-16T08:51:35.436Z,4.30
2023-04-16T08:54:09.093Z,4.00
2023-04-16T08:56:37.334Z,4.47
2023-04-16T08:59:04.474Z,4.72
2023-04-16T09:01:32.324Z,5.63
2023-04-16T09:03:59.998Z,5.28
2023-04-16T09:06:27.970Z,4.60
2023-04-16T09:08:55.853Z,5.65
2023-04-16T09:11:22.423Z,6.03
2023-04-16T09:13:48.904Z,5.70
2023-04-16T09:16:15.621Z,5.50
2023-04-16T09:18:42.358Z,5.57
2023-04-16T09:21:12.865Z,5.93
2023-04-16T09:23:40.361Z,4.95
2023-04-16T09:26:06.956Z,4.85
2023-04-16T09:28:43.428Z,6.30
2023-04-16T09:31:09.860Z,5.57
2023-04-16T09:33:36.491Z,7.13
2023-04-16T09:36:02.893Z,6.40
2023-04-16T09:38:47.830Z,4.80
2023-04-16T09:41:14.307Z,5.03
2023-04-16T09:43:40.635Z,4.57
2023-04-16T09:46:08.121Z,5.18
2023-04-16T09:48:34.908Z,5.07
2023-04-16T09:51:01.276Z,4.70
2023-04-16T09:53:28.853Z,6.07
2023-04-16T09:55:59.000Z,5.20
2023-04-16T09:58:25.376Z,4.57
2023-04-16T10:00:55.628Z,4.82
2023-04-16T10:03:29.152Z,5.53
2023-04-16T10:05:55.853Z,4.78
2023-04-16T10:08:23.843Z,4.47
2023-04-16T10:10:50.201Z,4.25
2023-04-16T10:13:16.851Z,4.22
2023-04-16T10:15:43.409Z,4.80
2023-04-16T10:18:09.869Z,4.68
2023-04-16T10:20:36.871Z,4.13
2023-04-16T10:23:03.300Z,6.07
2023-04-16T10:25:29.772Z,5.03
2023-04-16T10:27:56.976Z,4.90
2023-04-16T10:30:23.723Z,4.63
2023-04-16T10:32:50.396Z,6.83
2023-04-16T10:35:19.546Z,5.68
2023-04-16T10:37:46.054Z,4.25
2023-04-16T10:40:25.412Z,4.07
2023-04-16T10:42:58.548Z,5.53
2023-04-16T10:45:42.915Z,2.97
2023-04-16T10:48:09.287Z,2.63
2023-04-16T10:50:36.092Z,3.20
2023-04-16T10:53:22.752Z,3.88
2023-04-16T10:55:59.429Z,4.13
2023-04-16T10:58:29.375Z,4.90
2023-04-16T11:00:55.755Z,4.88
2023-04-16T11:03:22.199Z,3.97
2023-04-16T11:05:48.756Z,2.65
2023-04-16T11:08:15.655Z,5.45
2023-04-16T11:10:42.041Z,4.20
2023-04-16T11:13:08.408Z,5.53
2023-04-16T11:15:34.820Z,4.97
2023-04-16T11:18:01.222Z,5.07
2023-04-16T11:20:28.453Z,4.88
2023-04-16T11:22:55.634Z,2.80
2023-04-16T11:25:22.926Z,3.95
2023-04-16T11:27:49.894Z,4.05
2023-04-16T11:30:16.819Z,4.15
2023-04-16T11:32:43.986Z,3.03
2023-04-16T11:35:15.202Z,4.77
2023-04-16T11:37:41.978Z,3.22
2023-04-16T11:40:08.830Z,5.78
2023-04-16T11:42:35.596Z,3.67
2023-04-16T11:45:02.076Z,3.08
2023-04-16T11:47:29.649Z,3.37
2023-04-16T11:49:56.295Z,3.90
2023-04-16T11:52:26.672Z,5.32
2023-04-16T11:54:53.458Z,2.80
2023-04-16T11:57:29.415Z,4.18
2023-04-16T12:00:01.474Z,3.87
2023-04-16T12:02:38.435Z,2.47
2023-04-16T12:05:05.371Z,6.25
2023-04-16T12:07:31.744Z,3.50
2023-04-16T12:10:08.126Z,3.83
2023-04-16T12:12:34.574Z,3.97
2023-04-16T12:15:04.550Z,3.40
2023-04-16T12:17:34.911Z,4.43
2023-04-16T12:20:08.037Z,3.92
2023-04-16T12:22:37.091Z,3.85
2023-04-16T12:25:11.442Z,5.80
2023-04-16T12:27:41.248Z,5.85
2023-04-16T12:30:07.822Z,4.78
2023-04-16T12:32:34.295Z,3.97
2023-04-16T12:35:01.134Z,4.45
2023-04-16T12:37:27.479Z,3.97
2023-04-16T12:39:54.110Z,4.38
2023-04-16T12:42:20.996Z,6.00
2023-04-16T12:44:47.349Z,4.07
2023-04-16T12:47:13.725Z,5.38
2023-04-16T12:49:40.174Z,5.60
2023-04-16T12:52:06.549Z,4.43
2023-04-16T12:54:32.979Z,4.90
2023-04-16T12:56:59.359Z,5.50
2023-04-16T12:59:25.683Z,5.20
2023-04-16T13:01:52.096Z,6.07
2023-04-16T13:04:19.523Z,5.20
2023-04-16T13:06:45.913Z,6.97
2023-04-16T13:09:12.464Z,7.95
2023-04-16T13:11:38.981Z,6.55
2023-04-16T13:14:05.336Z,4.10
2023-04-16T13:16:31.658Z,6.18
2023-04-16T13:18:58.054Z,5.63
2023-04-16T13:21:24.425Z,4.50
2023-04-16T13:23:50.856Z,6.57
2023-04-16T13:26:17.240Z,6.00
2023-04-16T13:28:43.625Z,4.20
2023-04-16T13:31:09.948Z,4.95
2023-04-16T13:33:36.423Z,7.05
2023-04-16T13:36:02.789Z,4.45
2023-04-16T13:38:29.122Z,3.47
2023-04-16T13:40:55.629Z,5.38
2023-04-16T13:43:22.174Z,4.72
2023-04-16T13:45:48.562Z,5.65
2023-04-16T13:48:15.004Z,4.80
2023-04-16T13:50:41.356Z,6.50
2023-04-16T13:53:07.860Z,5.00
2023-04-16T13:55:34.362Z,5.15
2023-04-16T13:58:00.761Z,7.55
2023-04-16T14:00:27.136Z,4.95
2023-04-16T14:02:53.896Z,6.00
2023-04-16T14:05:20.392Z,5.93
2023-04-16T14:07:46.745Z,4.22
2023-04-16T14:10:13.158Z,5.55
2023-04-16T14:12:39.540Z,6.05
2023-04-16T14:15:06.678Z,5.67
2023-04-16T14:17:33.143Z,5.57
2023-04-16T14:19:59.563Z,6.97
2023-04-16T14:22:25.948Z,5.18
2023-04-16T14:24:52.402Z,6.00
2023-04-16T14:27:18.779Z,5.17
2023-04-16T14:29:45.137Z,6.10
2023-04-16T14:32:11.610Z,4.50
2023-04-16T14:34:37.976Z,6.78
2023-04-16T14:37:04.411Z,6.50
2023-04-16T14:39:30.809Z,6.30
2023-04-16T14:41:57.145Z,6.10
2023-04-16T14:44:23.483Z,6.03
2023-04-16T14:46:49.918Z,5.15
2023-04-16T14:49:16.616Z,7.00
2023-04-16T14:51:45.038Z,5.20
2023-04-16T14:54:11.440Z,5.20
2023-04-16T14:56:38.617Z,5.15
2023-04-16T14:59:04.961Z,6.85
2023-04-16T15:01:31.381Z,6.28
2023-04-16T15:03:59.243Z,6.00
2023-04-16T15:06:26.957Z,6.30
2023-04-16T15:08:53.458Z,4.68
2023-04-16T15:11:19.815Z,5.65
2023-04-16T15:13:46.187Z,4.45
2023-04-16T15:16:12.747Z,6.63
2023-04-16T15:18:39.223Z,5.55
2023-04-16T15:21:05.672Z,5.50
2023-04-16T15:23:32.154Z,4.68
2023-04-16T15:25:58.523Z,4.50
2023-04-16T15:28:24.910Z,4.83
2023-04-16T15:30:51.694Z,5.68
2023-04-16T15:33:20.193Z,5.60
2023-04-16T15:35:46.659Z,4.82
2023-04-16T15:38:13.137Z,4.82
2023-04-16T15:40:40.825Z,3.50
2023-04-16T15:43:07.193Z,3.90
2023-04-16T15:45:33.679Z,4.32
2023-04-16T15:48:00.079Z,4.53
2023-04-16T15:50:26.682Z,5.13
2023-04-16T15:52:53.680Z,4.83
2023-04-16T15:55:20.462Z,4.28
2023-04-16T15:57:46.902Z,4.88
2023-04-16T16:00:13.666Z,5.15
2023-04-16T16:02:40.810Z,5.85
2023-04-16T16:05:09.637Z,5.13
2023-04-16T16:07:36.183Z,5.72
2023-04-16T16:10:02.732Z,6.28
2023-04-16T16:12:29.357Z,5.57
2023-04-16T16:14:55.823Z,5.70
2023-04-16T16:17:22.206Z,3.90
2023-04-16T16:19:48.563Z,4.13
2023-04-16T16:22:14.937Z,3.75
2023-04-16T16:24:41.327Z,3.10
2023-04-16T16:27:07.692Z,6.85
2023-04-16T16:29:34.205Z,4.57
2023-04-16T16:32:00.602Z,5.20
2023-04-16T16:34:27.038Z,6.28
2023-04-16T16:36:53.481Z,5.00
2023-04-16T16:39:19.818Z,5.93
2023-04-16T16:41:46.178Z,3.80
2023-04-16T16:44:12.530Z,5.03
2023-04-16T16:46:38.895Z,7.75
2023-04-16T16:49:05.295Z,3.42
2023-04-16T16:51:31.686Z,3.28
2023-04-16T16:53:58.356Z,7.40
2023-04-16T16:56:24.852Z,3.08
2023-04-16T16:58:51.249Z,4.25
2023-04-16T17:01:17.757Z,3.72
2023-04-16T17:03:44.208Z,3.22
2023-04-16T17:06:11.238Z,3.03
2023-04-16T17:08:37.653Z,3.63
2023-04-16T17:11:04.311Z,3.63
2023-04-16T17:13:30.877Z,4.13
2023-04-16T17:15:57.231Z,5.13
2023-04-16T17:18:23.609Z,5.10
2023-04-16T17:20:49.988Z,5.63
2023-04-16T17:23:16.346Z,6.07
2023-04-16T17:25:42.802Z,6.38
2023-04-16T17:28:09.217Z,6.30
2023-04-16T17:30:35.605Z,6.83
2023-04-16T17:33:02.108Z,5.57
2023-04-16T17:35:28.597Z,5.53
2023-04-16T17:37:54.937Z,4.75
2023-04-16T17:40:21.308Z,4.47
2023-04-16T17:42:48.454Z,5.17
2023-04-16T17:45:14.969Z,4.90
2023-04-16T17:47:41.549Z,7.50
2023-04-16T17:50:08.695Z,7.03
2023-04-16T17:52:35.081Z,5.88
2023-04-16T17:55:01.962Z,6.50
2023-04-16T17:57:28.479Z,7.43
2023-04-16T17:59:54.855Z,9.27
2023-04-16T18:02:21.298Z,8.68
2023-04-16T18:04:47.844Z,9.45
2023-04-16T18:07:14.442Z,7.97
2023-04-16T18:09:41.102Z,11.68
2023-04-16T18:12:07.676Z,9.98
2023-04-16T18:14:34.432Z,8.02
2023-04-16T18:17:00.806Z,9.35
2023-04-16T18:19:27.349Z,5.83
2023-04-16T18:21:54.223Z,11.18
2023-04-16T18:24:20.649Z,8.05
2023-04-16T18:26:47.316Z,9.93
2023-04-16T18:29:13.992Z,8.63
2023-04-16T18:31:40.528Z,9.17
2023-04-16T18:34:07.085Z,7.28
2023-04-16T18:36:33.519Z,4.65
2023-04-16T18:39:02.137Z,9.60
2023-04-16T18:41:29.936Z,7.40
2023-04-16T18:43:56.352Z,8.47
2023-04-16T18:46:22.806Z,10.30
2023-04-16T18:48:50.030Z,10.30
2023-04-16T18:51:16.808Z,7.90
2023-04-16T18:53:43.764Z,10.30
2023-04-16T18:56:10.154Z,7.83
2023-04-16T18:58:36.551Z,9.73
2023-04-16T19:01:02.965Z,7.35
2023-04-16T19:03:29.620Z,7.93
2023-04-16T19:05:56.194Z,9.82
2023-04-16T19:08:22.559Z,8.50
2023-04-16T19:10:49.571Z,6.95
2023-04-16T19:13:16.202Z,8.95
2023-04-16T19:15:42.542Z,10.20
2023-04-16T19:18:08.937Z,7.38
2023-04-16T19:20:35.648Z,9.07
2023-04-16T19:23:02.297Z,27.02
2023-04-16T19:25:28.740Z,9.90
2023-04-16T19:27:55.089Z,7.68
2023-04-16T19:30:21.472Z,8.50
2023-04-16T19:32:47.989Z,6.90
2023-04-16T19:35:14.491Z,9.27
2023-04-16T19:37:40.865Z,7.00
2023-04-16T19:40:07.555Z,6.68
2023-04-16T19:42:33.912Z,8.60
2023-04-16T19:45:00.269Z,8.73
2023-04-16T19:47:26.649Z,9.57
2023-04-16T19:49:53.091Z,8.70
2023-04-16T19:52:19.435Z,7.70
2023-04-16T19:54:45.815Z,7.40
2023-04-16T19:57:12.165Z,6.90
2023-04-16T19:59:38.518Z,5.80
2023-04-16T20:02:05.048Z,6.22
2023-04-16T20:04:31.560Z,7.18
2023-04-16T20:06:57.998Z,7.45
2023-04-16T20:09:24.451Z,6.20
2023-04-16T20:11:50.777Z,6.60
2023-04-16T20:14:17.123Z,6.20
2023-04-16T20:16:44.246Z,6.28
2023-04-16T20:19:10.855Z,5.90
2023-04-16T20:21:37.520Z,5.67
2023-04-16T20:24:03.919Z,5.43
2023-04-16T20:26:30.354Z,6.57
2023-04-16T20:28:56.775Z,7.97
2023-04-16T20:31:23.279Z,9.40
2023-04-16T20:33:49.628Z,8.67
2023-04-16T20:36:15.974Z,8.68
2023-04-16T20:38:43.180Z,7.90
2023-04-16T20:41:09.551Z,8.40
2023-04-16T20:43:41.887Z,6.00
2023-04-16T20:46:08.600Z,7.33
2023-04-16T20:48:34.996Z,7.50
2023-04-16T20:51:01.808Z,7.63
2023-04-16T20:53:28.289Z,6.60
2023-04-16T20:55:55.038Z,7.70
2023-04-16T20:58:21.822Z,6.63
2023-04-16T21:00:52.273Z,8.60
2023-04-16T21:03:19.294Z,9.68
2023-04-16T21:05:49.239Z,9.95
2023-04-16T21:08:16.409Z,8.60
2023-04-16T21:10:42.815Z,8.63
2023-04-16T21:13:09.157Z,9.73
2023-04-16T21:15:36.821Z,9.52
2023-04-16T21:18:03.284Z,9.48
2023-04-16T21:20:30.552Z,8.82
2023-04-16T21:22:57.188Z,10.00
2023-04-16T21:25:23.632Z,9.40
2023-04-16T21:27:50.260Z,9.45
2023-04-16T21:30:16.734Z,9.32
2023-04-16T21:32:43.746Z,10.50
2023-04-16T21:35:10.319Z,8.77
2023-04-16T21:37:37.003Z,10.00
2023-04-16T21:40:04.011Z,8.82
2023-04-16T21:42:30.382Z,9.32
2023-04-16T21:44:57.184Z,8.93
2023-04-16T21:47:23.616Z,8.37
2023-04-16T21:49:49.990Z,8.25
2023-04-16T21:52:16.390Z,9.32
2023-04-16T21:54:44.117Z,8.65
2023-04-16T21:57:10.612Z,8.90
2023-04-16T21:59:38.376Z,9.53
2023-04-16T22:02:05.164Z,8.27
2023-04-16T22:04:31.844Z,8.90
2023-04-16T22:06:58.242Z,9.40
2023-04-16T22:09:24.613Z,7.53
2023-04-16T22:11:51.291Z,6.83
2023-04-16T22:14:17.715Z,9.18
2023-04-16T22:16:47.100Z,7.80
2023-04-16T22:19:13.550Z,9.98
2023-04-16T22:21:40.052Z,8.23
2023-04-16T22:24:06.609Z,5.00
2023-04-16T22:26:32.967Z,6.80
2023-04-16T22:28:59.396Z,7.47
2023-04-16T22:31:25.788Z,7.70
2023-04-16T22:33:52.158Z,6.05
2023-04-16T22:36:18.611Z,5.67
2023-04-16T22:38:44.993Z,5.82
2023-04-16T22:41:11.346Z,6.15
2023-04-16T22:43:37.757Z,6.60
2023-04-16T22:46:04.569Z,8.35
2023-04-16T22:48:31.202Z,8.50
2023-04-16T22:50:57.754Z,6.82
2023-04-16T22:53:24.138Z,6.03
2023-04-16T22:55:50.673Z,5.05
2023-04-16T22:58:17.070Z,8.38
2023-04-16T23:00:43.478Z,6.97
2023-04-16T23:03:10.070Z,7.25
2023-04-16T23:05:36.547Z,7.82
2023-04-16T23:08:02.886Z,8.15
2023-04-16T23:10:29.266Z,7.72
2023-04-16T23:12:56.413Z,8.33
2023-04-16T23:15:22.770Z,7.68
2023-04-16T23:17:49.186Z,9.30
2023-04-16T23:20:16.438Z,7.68
2023-04-16T23:22:42.817Z,9.25
2023-04-16T23:25:09.461Z,8.77
2023-04-16T23:27:36.575Z,7.88
2023-04-16T23:30:03.114Z,7.35
2023-04-16T23:32:30.193Z,7.88
2023-04-16T23:34:56.775Z,10.48
2023-04-16T23:37:23.120Z,7.93
2023-04-16T23:39:49.481Z,8.93
2023-04-16T23:42:15.876Z,9.80
2023-04-16T23:44:42.375Z,9.80
2023-04-16T23:47:08.736Z,9.90
2023-04-16T23:49:35.149Z,9.80
2023-04-16T23:52:01.565Z,9.27
2023-04-16T23:54:28.008Z,9.77
2023-04-16T23:56:54.534Z,10.00
2023-04-16T23:59:20.869Z,9.93
